Time;durP1;ratioP1;P1;durP2;ratioP2;P2;SDS_P1;SDS_P2;PMS_P1;PMS_P2;Temp;Humidity;BMP_temperature;BMP_pressure;BME280_temperature;BME280_humidity;BME280_pressure;Samples;Min_cycle;Max_cycle;Signal;HPM_P1;HPM_P2
2021/12/20 00:00:21;;;;;;;31.03;5.53;;;6.10;99.90;;;;;;4985506;28;20034;-29
2021/12/20 00:02:51;;;;;;;26.73;4.90;;;6.10;99.90;;;;;;4983367;28;20047;-29
2021/12/20 00:05:19;;;;;;;24.03;5.17;;;6.10;99.90;;;;;;4985132;28;20450;-29
2021/12/20 00:07:45;;;;;;;32.00;4.93;;;6.10;99.90;;;;;;4969650;28;20069;-29
2021/12/20 00:10:11;;;;;;;28.17;5.00;;;6.10;99.90;;;;;;4984353;28;20545;-29
2021/12/20 00:12:37;;;;;;;25.47;5.80;;;6.00;99.90;;;;;;4984982;28;20050;-29
2021/12/20 00:15:04;;;;;;;30.60;5.40;;;6.10;99.90;;;;;;4985612;28;20054;-30
2021/12/20 00:17:29;;;;;;;29.57;4.77;;;6.00;99.90;;;;;;4951484;28;20428;-29
2021/12/20 00:19:55;;;;;;;28.83;5.80;;;6.00;99.90;;;;;;4967917;28;20085;-30
2021/12/20 00:22:21;;;;;;;24.77;5.23;;;6.00;99.90;;;;;;4984292;28;20574;-30
2021/12/20 00:24:47;;;;;;;31.43;5.37;;;6.00;99.90;;;;;;4984275;28;20542;-29
2021/12/20 00:27:14;;;;;;;30.63;5.73;;;6.00;99.90;;;;;;4969715;28;20042;-30
2021/12/20 00:29:40;;;;;;;31.40;5.10;;;6.00;99.90;;;;;;4984459;28;20053;-30
2021/12/20 00:32:06;;;;;;;28.67;4.70;;;6.00;99.90;;;;;;4984613;28;20042;-30
2021/12/20 00:34:33;;;;;;;21.20;4.70;;;6.00;99.90;;;;;;4985101;28;20300;-29
2021/12/20 00:37:05;;;;;;;27.53;4.60;;;6.00;99.90;;;;;;4968860;28;20161;-29
2021/12/20 00:42:15;;;;;;;27.40;4.27;;;6.00;99.90;;;;;;4984647;28;20467;-29
2021/12/20 00:44:41;;;;;;;26.23;4.57;;;6.00;99.90;;;;;;4985052;28;20042;-29
2021/12/20 00:47:07;;;;;;;23.53;4.17;;;6.00;99.90;;;;;;4969227;28;20054;-29
2021/12/20 00:49:33;;;;;;;23.77;4.53;;;6.00;99.90;;;;;;4985574;28;20038;-30
2021/12/20 00:51:59;;;;;;;21.70;4.20;;;6.00;99.90;;;;;;4984915;28;20422;-30
2021/12/20 00:54:25;;;;;;;20.40;3.73;;;6.00;99.90;;;;;;4968980;28;20053;-29
2021/12/20 00:56:50;;;;;;;22.37;3.57;;;6.00;99.90;;;;;;4973795;28;20050;-29
2021/12/20 00:59:16;;;;;;;23.67;3.87;;;6.00;99.90;;;;;;4988311;28;20394;-29
2021/12/20 01:01:43;;;;;;;19.80;3.60;;;6.00;99.90;;;;;;4988888;28;20050;-29
2021/12/20 01:04:09;;;;;;;18.57;3.50;;;6.00;99.90;;;;;;4988298;28;20078;-30
2021/12/20 01:06:35;;;;;;;21.93;3.27;;;6.00;99.90;;;;;;4974976;28;20138;-29
2021/12/20 01:09:02;;;;;;;21.50;3.93;;;6.00;99.90;;;;;;4986730;28;20050;-30
2021/12/20 01:11:29;;;;;;;18.20;2.87;;;5.90;99.90;;;;;;4989696;28;20049;-30
2021/12/20 01:13:57;;;;;;;20.83;3.93;;;5.90;99.90;;;;;;4987007;28;20050;-29
2021/12/20 01:16:30;;;;;;;21.13;3.50;;;5.90;99.90;;;;;;4976455;28;20045;-30
2021/12/20 01:18:57;;;;;;;16.67;3.23;;;5.90;99.90;;;;;;4986615;28;20129;-29
2021/12/20 01:21:23;;;;;;;21.87;3.43;;;5.90;99.90;;;;;;4988423;28;20054;-29
2021/12/20 01:23:48;;;;;;;17.27;3.07;;;5.90;99.90;;;;;;4988161;28;20486;-29
2021/12/20 01:26:14;;;;;;;11.37;3.27;;;5.90;99.90;;;;;;4979293;28;20170;-29
2021/12/20 01:28:42;;;;;;;22.13;3.73;;;5.90;99.90;;;;;;4963907;28;20490;-29
2021/12/20 01:31:08;;;;;;;16.07;2.93;;;5.90;99.90;;;;;;4987632;28;20050;-29
2021/12/20 01:33:34;;;;;;;16.70;2.63;;;5.90;99.90;;;;;;4987915;28;20050;-29
2021/12/20 01:36:00;;;;;;;15.10;2.57;;;5.90;99.90;;;;;;4986883;28;20057;-30
2021/12/20 01:38:26;;;;;;;15.37;2.70;;;5.90;99.90;;;;;;4973144;28;20038;-29
2021/12/20 01:40:52;;;;;;;16.47;3.00;;;5.90;99.90;;;;;;4988555;28;20085;-29
2021/12/20 01:43:18;;;;;;;16.50;3.23;;;5.90;99.90;;;;;;4987685;28;20096;-30
2021/12/20 01:45:47;;;;;;;13.63;2.73;;;5.80;99.90;;;;;;4987226;28;20061;-30
2021/12/20 01:48:16;;;;;;;13.40;2.80;;;5.90;99.90;;;;;;4970605;28;20287;-29
2021/12/20 01:53:11;;;;;;;17.00;2.87;;;5.70;99.90;;;;;;4987352;28;20054;-29
2021/12/20 01:55:38;;;;;;;15.17;2.57;;;5.80;99.90;;;;;;4988374;28;20056;-29
2021/12/20 01:58:04;;;;;;;23.60;3.40;;;5.80;99.90;;;;;;4954226;28;20053;-30
2021/12/20 02:00:30;;;;;;;13.27;2.30;;;5.80;99.90;;;;;;4986909;28;20038;-29
2021/12/20 02:03:01;;;;;;;18.47;2.67;;;5.70;99.90;;;;;;4987421;28;20050;-29
2021/12/20 02:05:48;;;;;;;12.45;2.80;;;5.70;99.90;;;;;;4986538;28;20046;-29
2021/12/20 02:08:26;;;;;;;12.87;2.43;;;5.70;99.90;;;;;;4971920;28;20177;-29
2021/12/20 02:11:05;;;;;;;10.57;2.27;;;5.70;99.90;;;;;;4988375;28;20080;-29
2021/12/20 02:13:31;;;;;;;13.47;2.73;;;5.70;99.90;;;;;;4987002;28;20039;-29
2021/12/20 02:15:58;;;;;;;11.20;2.87;;;5.70;99.90;;;;;;4969897;28;20046;-29
2021/12/20 02:18:24;;;;;;;16.93;2.47;;;5.60;99.90;;;;;;4971618;28;20414;-29
2021/12/20 02:20:50;;;;;;;16.40;2.67;;;5.60;99.90;;;;;;4969990;28;20061;-29
2021/12/20 02:23:16;;;;;;;14.70;2.40;;;5.60;99.90;;;;;;4986787;28;20046;-29
2021/12/20 02:25:42;;;;;;;13.20;2.23;;;5.60;99.90;;;;;;4987261;28;20081;-29
2021/12/20 02:28:16;;;;;;;11.00;2.43;;;5.60;99.90;;;;;;4970282;28;20120;-29
2021/12/20 02:38:47;;;;;;;20.83;3.20;;;5.50;99.90;;;;;;4982807;28;20062;-29
2021/12/20 02:41:17;;;;;;;14.83;2.60;;;5.60;99.90;;;;;;4987442;28;20137;-29
2021/12/20 02:43:52;;;;;;;14.87;3.00;;;5.60;99.90;;;;;;4986364;28;20069;-29
2021/12/20 02:49:10;;;;;;;19.97;3.30;;;5.50;99.90;;;;;;4984898;28;20502;-29
2021/12/20 02:51:37;;;;;;;15.87;2.70;;;5.50;99.90;;;;;;4987565;28;20034;-29
2021/12/20 02:54:05;;;;;;;17.20;3.07;;;5.50;99.90;;;;;;4986572;28;20046;-29
2021/12/20 02:56:31;;;;;;;18.57;3.07;;;5.50;99.90;;;;;;4973034;28;20151;-29
2021/12/20 02:58:57;;;;;;;12.53;2.27;;;5.40;99.90;;;;;;4967101;28;20557;-29
2021/12/20 03:01:23;;;;;;;12.27;2.30;;;5.40;99.90;;;;;;4987254;28;20121;-29
2021/12/20 03:03:52;;;;;;;15.27;2.77;;;5.40;99.90;;;;;;4986931;28;20765;-29
2021/12/20 03:06:24;;;;;;;11.23;2.40;;;5.40;99.90;;;;;;4975905;28;20089;-29
2021/12/20 03:08:53;;;;;;;12.73;2.70;;;5.40;99.90;;;;;;4983262;28;20049;-29
2021/12/20 03:11:21;;;;;;;16.13;2.43;;;5.30;99.90;;;;;;4968824;28;20058;-29
2021/12/20 03:13:49;;;;;;;13.97;2.30;;;5.30;99.90;;;;;;4985979;28;20077;-29
2021/12/20 03:16:14;;;;;;;13.23;2.50;;;5.20;99.90;;;;;;4977229;28;20046;-29
2021/12/20 03:18:40;;;;;;;15.60;2.57;;;5.20;99.90;;;;;;4978531;28;20109;-29
2021/12/20 03:21:06;;;;;;;14.10;2.40;;;5.20;99.90;;;;;;4976017;28;20472;-29
2021/12/20 03:23:32;;;;;;;19.17;2.83;;;5.20;99.90;;;;;;5005209;28;20046;-29
2021/12/20 03:25:57;;;;;;;15.20;2.50;;;5.10;99.90;;;;;;4988058;28;20449;-29
2021/12/20 03:28:23;;;;;;;16.63;2.40;;;5.10;99.90;;;;;;4989944;28;20045;-29
2021/12/20 03:30:49;;;;;;;12.97;2.73;;;5.10;99.90;;;;;;4990705;28;20531;-29
2021/12/20 03:33:15;;;;;;;12.97;2.00;;;5.10;99.90;;;;;;5005402;28;20054;-30
2021/12/20 03:35:40;;;;;;;8.87;1.60;;;5.00;99.90;;;;;;5004380;28;20096;-29
2021/12/20 03:38:07;;;;;;;8.10;2.10;;;5.00;99.90;;;;;;4990671;28;20156;-29
2021/12/20 03:40:33;;;;;;;15.10;2.23;;;5.00;99.90;;;;;;5005773;28;20085;-29
2021/12/20 03:42:59;;;;;;;14.33;2.30;;;5.10;99.90;;;;;;5003847;28;20076;-29
2021/12/20 03:45:25;;;;;;;11.23;2.33;;;4.90;99.90;;;;;;5005807;28;20048;-29
2021/12/20 03:47:50;;;;;;;11.00;2.07;;;4.90;99.90;;;;;;4987857;28;20053;-29
2021/12/20 03:50:17;;;;;;;10.70;1.80;;;4.90;99.90;;;;;;5006141;28;20044;-29
2021/12/20 03:52:42;;;;;;;11.77;2.37;;;4.90;99.90;;;;;;4987092;28;20057;-29
2021/12/20 03:55:10;;;;;;;13.03;2.40;;;4.80;99.90;;;;;;5005486;28;20100;-29
2021/12/20 03:57:36;;;;;;;13.07;2.23;;;4.80;99.90;;;;;;4989332;28;20041;-29
2021/12/20 04:00:05;;;;;;;12.97;1.63;;;4.80;99.90;;;;;;5005843;28;20038;-29
2021/12/20 04:02:38;;;;;;;12.80;2.27;;;4.80;99.90;;;;;;5004799;28;20610;-29
2021/12/20 04:05:05;;;;;;;14.17;2.30;;;4.70;99.90;;;;;;4987433;28;20513;-29
2021/12/20 04:07:31;;;;;;;9.43;1.93;;;4.70;99.90;;;;;;4988972;28;20141;-30
2021/12/20 04:09:56;;;;;;;15.37;2.07;;;4.60;99.90;;;;;;4988393;28;20557;-29
2021/12/20 04:12:22;;;;;;;11.10;1.73;;;4.60;99.90;;;;;;5004141;28;20049;-29
2021/12/20 04:14:48;;;;;;;10.83;2.30;;;4.60;99.90;;;;;;4987782;28;20042;-29
2021/12/20 04:17:14;;;;;;;12.93;2.10;;;4.60;99.90;;;;;;4970038;28;20058;-29
2021/12/20 04:19:39;;;;;;;13.37;1.97;;;4.50;99.90;;;;;;5004661;28;20127;-29
2021/12/20 04:22:05;;;;;;;11.77;1.90;;;4.50;99.90;;;;;;4997600;28;20046;-29
2021/12/20 04:24:31;;;;;;;11.23;2.43;;;4.50;99.90;;;;;;4984299;28;20180;-29
2021/12/20 04:26:57;;;;;;;7.90;1.70;;;4.50;99.90;;;;;;4985208;28;20525;-29
2021/12/20 04:29:23;;;;;;;11.97;2.23;;;4.40;99.90;;;;;;4983510;28;20097;-29
2021/12/20 04:31:49;;;;;;;12.10;2.30;;;4.60;99.90;;;;;;4986043;28;20363;-29
2021/12/20 04:34:15;;;;;;;10.27;2.03;;;4.50;99.90;;;;;;4984623;28;20525;-29
2021/12/20 04:36:41;;;;;;;16.23;2.33;;;4.40;99.90;;;;;;4971792;28;20541;-29
2021/12/20 04:39:12;;;;;;;14.10;2.23;;;4.40;99.90;;;;;;4984004;28;20317;-29
2021/12/20 04:41:38;;;;;;;11.80;1.90;;;4.40;99.90;;;;;;4985261;28;20513;-29
2021/12/20 04:44:04;;;;;;;12.80;1.87;;;4.40;99.90;;;;;;4984184;28;20051;-29
2021/12/20 04:46:30;;;;;;;15.53;2.53;;;4.40;99.90;;;;;;4972117;28;20034;-30
2021/12/20 04:48:55;;;;;;;16.43;2.60;;;4.40;99.90;;;;;;4982591;28;20046;-29
2021/12/20 04:51:21;;;;;;;14.77;2.40;;;4.40;99.90;;;;;;4983874;28;20054;-29
2021/12/20 04:53:47;;;;;;;16.10;2.37;;;4.40;99.90;;;;;;4984502;28;20054;-29
2021/12/20 04:56:13;;;;;;;11.40;2.50;;;4.40;99.90;;;;;;4976157;28;20548;-30
2021/12/20 04:58:39;;;;;;;14.47;2.53;;;4.40;99.90;;;;;;4978324;28;20078;-29
2021/12/20 05:01:04;;;;;;;14.10;1.83;;;4.40;99.90;;;;;;4983842;28;20046;-29
2021/12/20 05:03:30;;;;;;;13.93;2.30;;;4.40;99.90;;;;;;4984501;28;20050;-29
2021/12/20 05:05:56;;;;;;;10.70;1.97;;;4.30;99.90;;;;;;4984887;28;20647;-29
2021/12/20 05:08:21;;;;;;;21.10;3.03;;;4.30;99.90;;;;;;4968952;28;20054;-29
2021/12/20 05:10:47;;;;;;;14.10;2.50;;;4.40;99.90;;;;;;4984346;28;20629;-29
2021/12/20 05:13:13;;;;;;;14.40;2.63;;;4.30;99.90;;;;;;4984202;28;20490;-29
2021/12/20 05:15:40;;;;;;;14.17;2.83;;;4.30;99.90;;;;;;4983634;28;20100;-29
2021/12/20 05:18:09;;;;;;;16.50;2.97;;;4.30;99.90;;;;;;4968827;28;20046;-29
2021/12/20 05:20:36;;;;;;;17.47;2.87;;;4.30;99.90;;;;;;4984806;28;20042;-30
2021/12/20 05:23:04;;;;;;;16.03;2.60;;;4.30;99.90;;;;;;4984500;28;20092;-29
2021/12/20 05:25:30;;;;;;;13.23;1.77;;;4.30;99.90;;;;;;4984665;28;20520;-29
2021/12/20 05:27:56;;;;;;;12.57;2.60;;;4.30;99.90;;;;;;4967261;28;20049;-29
2021/12/20 05:30:22;;;;;;;14.00;2.77;;;4.30;99.90;;;;;;4983112;28;20054;-29
2021/12/20 05:32:48;;;;;;;8.67;2.10;;;4.20;99.90;;;;;;4984246;28;20046;-29
2021/12/20 05:35:15;;;;;;;12.90;2.20;;;4.20;99.90;;;;;;4985318;28;20096;-29
2021/12/20 05:37:42;;;;;;;13.37;2.20;;;4.10;99.90;;;;;;4951826;28;20512;-29
2021/12/20 05:40:10;;;;;;;11.50;1.80;;;4.10;99.90;;;;;;4986230;28;20109;-29
2021/12/20 05:42:36;;;;;;;10.77;2.23;;;4.00;99.90;;;;;;4987856;28;20049;-29
2021/12/20 05:45:03;;;;;;;12.63;2.47;;;4.00;99.90;;;;;;4987913;28;20046;-29
2021/12/20 05:47:29;;;;;;;10.53;2.00;;;4.00;99.90;;;;;;4972315;28;20490;-28
2021/12/20 05:49:54;;;;;;;11.00;2.10;;;3.90;99.90;;;;;;4988014;28;20099;-29
2021/12/20 05:52:20;;;;;;;15.03;2.40;;;3.80;99.90;;;;;;4986198;28;20042;-29
2021/12/20 05:54:46;;;;;;;10.87;1.80;;;3.80;99.90;;;;;;4970557;28;20469;-29
2021/12/20 05:57:12;;;;;;;10.20;1.80;;;3.80;99.90;;;;;;4954357;28;20046;-30
2021/12/20 05:59:38;;;;;;;11.10;2.07;;;3.70;99.90;;;;;;4986995;28;20042;-29
2021/12/20 06:02:04;;;;;;;7.90;1.70;;;3.70;99.90;;;;;;4987105;28;20054;-30
2021/12/20 06:04:29;;;;;;;7.37;1.77;;;3.60;99.90;;;;;;4988240;28;20042;-29
2021/12/20 06:06:55;;;;;;;7.43;1.33;;;3.60;99.90;;;;;;4972477;28;20057;-29
2021/12/20 06:09:21;;;;;;;10.47;1.60;;;3.60;99.90;;;;;;4987163;28;20219;-29
2021/12/20 06:11:47;;;;;;;8.67;1.70;;;3.50;99.90;;;;;;4988137;28;20061;-29
2021/12/20 06:14:13;;;;;;;13.27;2.10;;;3.50;99.90;;;;;;4986726;28;20042;-29
2021/12/20 06:16:38;;;;;;;11.43;2.37;;;3.40;99.90;;;;;;4974252;28;20587;-29
2021/12/20 06:19:04;;;;;;;12.83;2.30;;;3.40;99.90;;;;;;4967472;28;20433;-29
2021/12/20 06:21:30;;;;;;;13.00;2.60;;;3.30;99.90;;;;;;4989966;28;20093;-29
2021/12/20 06:23:55;;;;;;;11.13;2.50;;;3.30;99.90;;;;;;4969253;28;20532;-29
2021/12/20 06:26:23;;;;;;;8.40;1.73;;;3.20;99.90;;;;;;4975830;28;20042;-29
2021/12/20 06:28:52;;;;;;;13.97;2.40;;;3.10;99.90;;;;;;4983723;28;20376;-29
2021/12/20 06:31:19;;;;;;;8.90;1.77;;;3.10;99.90;;;;;;4968453;28;20133;-29
2021/12/20 06:33:45;;;;;;;12.10;1.63;;;3.10;99.90;;;;;;4986790;28;20125;-29
2021/12/20 06:36:11;;;;;;;12.63;2.13;;;3.00;99.90;;;;;;4977714;28;20490;-29
2021/12/20 06:38:43;;;;;;;10.13;1.93;;;3.00;99.90;;;;;;4979515;28;20060;-29
2021/12/20 06:41:09;;;;;;;15.27;2.20;;;3.00;99.90;;;;;;4987911;28;20156;-29
2021/12/20 06:43:34;;;;;;;9.27;1.80;;;2.90;99.90;;;;;;4986716;28;20590;-29
2021/12/20 06:46:00;;;;;;;13.57;2.37;;;2.90;99.90;;;;;;4987163;28;20101;-29
2021/12/20 06:48:26;;;;;;;13.57;2.40;;;2.80;99.90;;;;;;4966866;28;20161;-29
2021/12/20 06:50:52;;;;;;;11.43;2.03;;;2.80;99.90;;;;;;4982502;28;20038;-28
2021/12/20 06:53:18;;;;;;;14.93;2.70;;;2.70;99.90;;;;;;4981173;28;20502;-29
2021/12/20 06:55:44;;;;;;;13.70;2.57;;;2.70;99.90;;;;;;4986921;28;20056;-29
2021/12/20 06:58:09;;;;;;;13.60;2.60;;;2.60;99.90;;;;;;4969910;28;20383;-28
2021/12/20 07:00:35;;;;;;;13.73;2.70;;;2.60;99.90;;;;;;4985145;28;20061;-29
2021/12/20 07:03:01;;;;;;;12.57;2.40;;;2.50;99.90;;;;;;4985422;28;20045;-29
2021/12/20 07:05:27;;;;;;;18.87;3.00;;;2.50;99.90;;;;;;4984683;28;20045;-29
2021/12/20 07:07:53;;;;;;;18.90;2.70;;;2.50;99.90;;;;;;4970156;28;20072;-29
2021/12/20 07:10:19;;;;;;;20.80;3.27;;;2.40;99.90;;;;;;4968469;28;20490;-28
2021/12/20 07:12:45;;;;;;;16.07;3.00;;;2.40;99.90;;;;;;4985703;28;20073;-29
2021/12/20 07:15:14;;;;;;;13.50;2.37;;;2.40;99.90;;;;;;4985608;28;20575;-29
2021/12/20 07:17:41;;;;;;;15.77;2.70;;;2.30;99.90;;;;;;4952268;28;20052;-29
2021/12/20 07:20:07;;;;;;;18.03;2.97;;;2.30;99.90;;;;;;4984977;28;20042;-29
2021/12/20 07:22:33;;;;;;;19.03;2.70;;;2.30;99.90;;;;;;4986297;28;20398;-29
2021/12/20 07:25:00;;;;;;;11.00;2.50;;;2.20;99.90;;;;;;4984067;28;20050;-29
2021/12/20 07:27:25;;;;;;;16.70;2.80;;;2.20;99.90;;;;;;4967706;28;20120;-29
2021/12/20 07:29:51;;;;;;;13.80;2.67;;;2.10;99.90;;;;;;4966015;28;20158;-29
2021/12/20 07:32:17;;;;;;;14.90;2.47;;;2.10;99.90;;;;;;4984021;28;20050;-29
2021/12/20 07:34:43;;;;;;;16.77;2.53;;;2.10;99.90;;;;;;4983818;28;20838;-29
2021/12/20 07:37:09;;;;;;;14.80;3.10;;;2.10;99.90;;;;;;4950007;28;20049;-29
2021/12/20 07:39:34;;;;;;;16.23;3.20;;;2.10;99.90;;;;;;4984417;28;20185;-29
2021/12/20 07:42:00;;;;;;;13.80;3.03;;;2.10;99.90;;;;;;4984817;28;20088;-29
2021/12/20 07:44:26;;;;;;;11.70;2.60;;;2.00;99.90;;;;;;4982732;28;20046;-29
2021/12/20 07:46:52;;;;;;;18.73;2.93;;;2.00;99.90;;;;;;4969801;28;20088;-29
2021/12/20 07:49:19;;;;;;;18.60;3.07;;;1.90;99.90;;;;;;4965753;28;20050;-29
2021/12/20 07:51:45;;;;;;;19.90;3.50;;;1.90;99.90;;;;;;4985150;28;20034;-29
2021/12/20 07:54:11;;;;;;;10.30;2.20;;;1.90;99.90;;;;;;4984204;28;20398;-29
2021/12/20 07:56:36;;;;;;;15.37;2.33;;;1.90;99.90;;;;;;4970751;28;20043;-29
2021/12/20 07:59:02;;;;;;;11.10;1.93;;;1.90;99.90;;;;;;4980151;28;20053;-29
2021/12/20 08:01:29;;;;;;;13.23;2.80;;;1.80;99.90;;;;;;4965726;28;20053;-29
2021/12/20 08:03:55;;;;;;;13.00;2.63;;;1.80;99.90;;;;;;4983870;28;20414;-29
2021/12/20 08:06:21;;;;;;;18.27;3.00;;;1.80;99.90;;;;;;4974450;28;20425;-29
2021/12/20 08:08:47;;;;;;;14.50;2.77;;;1.80;99.90;;;;;;4981648;28;20057;-29
2021/12/20 08:11:12;;;;;;;12.13;2.83;;;1.80;99.90;;;;;;4982899;28;20046;-29
2021/12/20 08:13:44;;;;;;;11.10;2.47;;;1.80;99.90;;;;;;4984395;28;20070;-28
2021/12/20 08:16:13;;;;;;;;;;;1.80;99.90;;;;;;4975103;28;20552;-29
2021/12/20 08:18:41;;;;;;;15.50;2.53;;;1.70;99.90;;;;;;4976039;28;19941;-29
2021/12/20 08:21:06;;;;;;;15.70;2.70;;;1.70;99.90;;;;;;4967455;28;20083;-29
2021/12/20 08:23:32;;;;;;;10.93;2.47;;;1.70;99.90;;;;;;4983978;28;20461;-29
2021/12/20 08:25:58;;;;;;;17.10;2.83;;;1.60;99.90;;;;;;4984908;28;20050;-29
2021/12/20 08:28:24;;;;;;;13.53;2.90;;;1.60;99.90;;;;;;4968856;28;20085;-29
2021/12/20 08:30:50;;;;;;;14.60;3.40;;;1.60;99.90;;;;;;4982063;28;20116;-29
2021/12/20 08:33:15;;;;;;;17.60;3.57;;;1.60;99.90;;;;;;4984280;28;20046;-29
2021/12/20 08:35:42;;;;;;;12.57;2.50;;;1.60;99.90;;;;;;4983579;28;20057;-29
2021/12/20 08:38:08;;;;;;;15.37;2.90;;;1.60;99.90;;;;;;4969470;28;20489;-29
2021/12/20 08:40:34;;;;;;;11.43;3.07;;;1.50;99.90;;;;;;4984865;28;20115;-28
2021/12/20 08:43:01;;;;;;;15.90;2.90;;;1.60;99.90;;;;;;4983334;28;20077;-29
2021/12/20 08:45:27;;;;;;;12.27;3.47;;;1.50;99.90;;;;;;4984532;28;20058;-29
2021/12/20 08:47:53;;;;;;;14.80;2.83;;;1.60;99.90;;;;;;4964696;28;20046;-29
2021/12/20 08:50:21;;;;;;;15.23;2.90;;;1.50;99.90;;;;;;4981693;28;20424;-29
2021/12/20 08:52:47;;;;;;;13.10;3.30;;;1.60;99.90;;;;;;4983533;28;20501;-28
2021/12/20 08:55:14;;;;;;;15.63;3.10;;;1.50;99.90;;;;;;4967129;28;20042;-29
2021/12/20 08:57:40;;;;;;;20.53;3.67;;;1.50;99.90;;;;;;4968605;28;20053;-29
2021/12/20 09:00:09;;;;;;;13.83;3.07;;;1.60;99.90;;;;;;4966752;28;20496;-29
2021/12/20 09:02:35;;;;;;;14.17;3.23;;;1.60;99.90;;;;;;4982151;28;20521;-29
2021/12/20 09:05:01;;;;;;;13.87;2.90;;;1.50;99.90;;;;;;4983732;28;20061;-29
2021/12/20 09:07:27;;;;;;;24.73;3.30;;;1.60;99.90;;;;;;4967964;28;20413;-29
2021/12/20 09:09:53;;;;;;;19.27;3.50;;;1.60;99.90;;;;;;4984620;28;20038;-29
2021/12/20 09:12:20;;;;;;;14.53;3.17;;;1.60;99.90;;;;;;4983578;28;20146;-29
2021/12/20 09:14:48;;;;;;;18.43;3.67;;;1.60;99.90;;;;;;4985479;28;20077;-29
2021/12/20 09:17:15;;;;;;;16.37;4.20;;;1.60;99.90;;;;;;4965879;28;20565;-29
2021/12/20 09:19:41;;;;;;;14.77;2.97;;;1.60;99.90;;;;;;4976953;28;20487;-29
2021/12/20 09:22:07;;;;;;;16.37;3.70;;;1.60;99.90;;;;;;4961808;28;20062;-29
2021/12/20 09:24:36;;;;;;;19.30;3.90;;;1.60;99.90;;;;;;4985789;28;20568;-29
2021/12/20 09:27:03;;;;;;;15.13;3.77;;;1.70;99.90;;;;;;4966541;28;20046;-29
2021/12/20 09:29:29;;;;;;;20.00;4.40;;;1.70;99.90;;;;;;4984398;28;20043;-29
2021/12/20 09:31:56;;;;;;;23.53;4.97;;;1.70;99.90;;;;;;4969670;28;20434;-28
2021/12/20 09:34:22;;;;;;;18.17;4.23;;;1.70;99.90;;;;;;4968102;28;20421;-29
2021/12/20 09:36:47;;;;;;;18.93;4.40;;;1.80;99.90;;;;;;4955626;28;20059;-29
2021/12/20 09:39:16;;;;;;;25.73;4.83;;;1.80;99.90;;;;;;4969539;28;20049;-28
2021/12/20 09:44:10;;;;;;;23.73;4.53;;;1.90;99.90;;;;;;4967726;28;20090;-29
2021/12/20 09:46:37;;;;;;;22.30;5.00;;;1.90;99.90;;;;;;4968191;28;20518;-29
2021/12/20 09:49:04;;;;;;;26.40;4.83;;;2.00;99.90;;;;;;4967516;28;20046;-29
2021/12/20 09:51:29;;;;;;;21.80;4.53;;;2.00;99.90;;;;;;4971011;28;20046;-29
2021/12/20 09:53:55;;;;;;;20.57;5.30;;;2.20;99.90;;;;;;4976635;28;20312;-29
2021/12/20 09:56:24;;;;;;;24.63;5.30;;;2.30;99.90;;;;;;4964763;28;20233;-29
2021/12/20 09:58:53;;;;;;;32.10;5.50;;;2.50;99.90;;;;;;4969699;28;20522;-29
2021/12/20 10:01:20;;;;;;;26.63;5.87;;;2.50;99.90;;;;;;4974631;28;20085;-29
2021/12/20 10:03:46;;;;;;;31.93;5.97;;;2.70;99.90;;;;;;4971355;28;20047;-29
2021/12/20 10:06:12;;;;;;;33.33;6.40;;;2.80;99.90;;;;;;4965381;28;20319;-29
2021/12/20 10:08:48;;;;;;;37.67;7.33;;;2.90;99.90;;;;;;4966975;28;20047;-29
2021/12/20 10:11:26;;;;;;;31.57;6.27;;;3.10;99.90;;;;;;4969738;28;20054;-29
2021/12/20 10:14:13;;;;;;;36.20;6.77;;;3.20;99.90;;;;;;4973514;28;20062;-29
2021/12/20 10:16:41;;;;;;;25.73;5.97;;;3.30;99.90;;;;;;4973618;28;20129;-29
2021/12/20 10:19:28;;;;;;;33.90;7.10;;;3.50;99.90;;;;;;4969757;28;20050;-29
2021/12/20 10:21:55;;;;;;;32.93;6.90;;;3.60;99.90;;;;;;4970639;28;20081;-29
2021/12/20 10:24:32;;;;;;;30.70;5.60;;;3.80;99.90;;;;;;4969531;28;20458;-29
2021/12/20 10:26:58;;;;;;;33.77;5.97;;;3.90;99.90;;;;;;4959852;28;20088;-29
2021/12/20 10:29:23;;;;;;;32.10;6.23;;;4.10;99.90;;;;;;4985346;28;20312;-29
2021/12/20 10:31:50;;;;;;;29.90;6.07;;;4.30;99.90;;;;;;4985381;28;20117;-29
2021/12/20 10:34:18;;;;;;;34.03;6.80;;;4.50;99.90;;;;;;4985222;28;20381;-30
2021/12/20 10:36:55;;;;;;;27.83;6.23;;;4.70;99.90;;;;;;4940258;28;20076;-30
2021/12/20 10:39:43;;;;;;;27.63;6.13;;;5.10;99.90;;;;;;4978438;28;20525;-29
2021/12/20 10:42:23;;;;;;;23.37;5.80;;;5.20;99.90;;;;;;4957023;28;20637;-30
2021/12/20 10:45:08;;;;;;;26.93;6.10;;;5.40;99.90;;;;;;4979714;28;20041;-30
2021/12/20 10:47:34;;;;;;;35.23;5.80;;;5.60;99.90;;;;;;4968001;28;20058;-30
2021/12/20 10:50:18;;;;;;;30.90;6.07;;;5.80;99.90;;;;;;4984165;28;20502;-30
2021/12/20 10:52:44;;;;;;;34.77;8.10;;;6.00;99.90;;;;;;4980246;28;20510;-30
2021/12/20 10:55:11;;;;;;;28.63;6.63;;;6.20;99.90;;;;;;4982818;28;20063;-30
2021/12/20 10:57:37;;;;;;;34.43;7.13;;;6.40;99.90;;;;;;4962563;28;20141;-30
2021/12/20 11:00:22;;;;;;;30.10;8.83;;;6.50;99.90;;;;;;4965061;28;20117;-30
2021/12/20 11:05:58;;;;;;;26.57;7.60;;;6.80;99.90;;;;;;4975838;28;20375;-30
2021/12/20 11:11:13;;;;;;;28.87;6.50;;;6.80;99.90;;;;;;4974869;28;20061;-30
2021/12/20 11:13:39;;;;;;;27.07;7.97;;;6.90;99.90;;;;;;4971610;28;20349;-29
2021/12/20 11:16:27;;;;;;;30.40;7.43;;;7.00;99.90;;;;;;4972301;28;20046;-30
2021/12/20 11:19:17;;;;;;;28.83;6.50;;;7.20;99.90;;;;;;4974059;28;20133;-30
2021/12/20 11:21:58;;;;;;;24.53;6.30;;;7.30;99.90;;;;;;4983630;28;20066;-30
2021/12/20 11:24:30;;;;;;;30.20;6.00;;;7.40;99.90;;;;;;5002530;28;20589;-30
2021/12/20 11:26:58;;;;;;;31.60;7.03;;;7.50;99.90;;;;;;4987982;28;20085;-29
2021/12/20 11:29:25;;;;;;;36.97;9.00;;;7.50;99.90;;;;;;4996688;28;20108;-30
2021/12/20 11:31:51;;;;;;;34.60;8.00;;;7.50;99.90;;;;;;5001821;28;20580;-29
2021/12/20 11:34:17;;;;;;;33.23;8.10;;;7.40;99.90;;;;;;5002832;28;20065;-30
2021/12/20 11:36:43;;;;;;;39.27;9.77;;;7.40;99.90;;;;;;4987374;28;20976;-30
2021/12/20 11:39:10;;;;;;;31.37;7.43;;;7.30;99.90;;;;;;5003116;28;20126;-29
2021/12/20 11:41:36;;;;;;;33.40;6.77;;;7.30;99.90;;;;;;5003616;28;20077;-30
2021/12/20 11:44:04;;;;;;;29.77;6.37;;;7.30;99.90;;;;;;4983586;28;20073;-30
2021/12/20 11:47:02;;;;;;;28.60;6.40;;;7.30;99.90;;;;;;4991280;28;20053;-30
2021/12/20 11:49:29;;;;;;;29.70;5.97;;;7.30;99.90;;;;;;5000181;28;20045;-29
2021/12/20 11:52:19;;;;;;;29.43;6.67;;;7.30;99.90;;;;;;4983252;28;20054;-29
2021/12/20 11:54:48;;;;;;;29.57;6.30;;;7.20;99.90;;;;;;4954079;28;20050;-29
2021/12/20 11:57:36;;;;;;;26.87;5.30;;;7.20;99.90;;;;;;4987362;28;20104;-30
2021/12/20 12:00:24;;;;;;;25.30;6.00;;;7.20;99.90;;;;;;5003120;28;20049;-30
2021/12/20 12:02:59;;;;;;;22.97;5.70;;;7.10;99.90;;;;;;5001353;28;20101;-29
2021/12/20 12:06:02;;;;;;;28.83;6.00;;;7.10;99.90;;;;;;5001601;28;20092;-30
2021/12/20 12:08:32;;;;;;;30.07;6.80;;;7.10;99.90;;;;;;4905954;29;20582;-29
2021/12/20 12:11:06;;;;;;;29.97;6.87;;;7.10;99.90;;;;;;4989543;28;20520;-30
2021/12/20 12:13:49;;;;;;;27.33;7.60;;;7.00;99.90;;;;;;4985301;28;20057;-29
2021/12/20 12:16:28;;;;;;;29.77;7.20;;;7.10;99.90;;;;;;4993019;28;20057;-30
2021/12/20 12:18:56;;;;;;;27.13;6.07;;;7.00;99.90;;;;;;4996544;28;20571;-30
2021/12/20 12:21:37;;;;;;;30.10;6.37;;;7.00;99.90;;;;;;5001555;28;20509;-30
2021/12/20 12:24:04;;;;;;;30.67;6.82;;;6.90;99.90;;;;;;5001006;28;20046;-30
2021/12/20 12:26:40;;;;;;;28.83;6.60;;;6.80;99.90;;;;;;4954617;28;20557;-30
2021/12/20 12:29:15;;;;;;;25.17;6.07;;;6.80;99.90;;;;;;5000203;28;20618;-29
2021/12/20 12:32:01;;;;;;;25.97;6.27;;;6.70;99.90;;;;;;5001564;28;20049;-30
2021/12/20 12:34:41;;;;;;;30.83;5.87;;;6.60;99.90;;;;;;5000985;28;20037;-29
2021/12/20 12:37:19;;;;;;;24.00;5.53;;;6.70;99.90;;;;;;4984769;28;20053;-29
2021/12/20 12:39:45;;;;;;;20.07;4.63;;;6.70;99.90;;;;;;5002085;28;20050;-29
2021/12/20 12:42:11;;;;;;;20.10;4.37;;;6.70;99.90;;;;;;5002238;28;20220;-30
2021/12/20 12:44:37;;;;;;;29.30;5.73;;;6.70;99.90;;;;;;5002772;28;20709;-30
2021/12/20 12:47:04;;;;;;;26.27;6.10;;;6.60;99.90;;;;;;4987889;28;20546;-29
2021/12/20 12:49:36;;;;;;;25.90;5.80;;;6.60;99.90;;;;;;5001682;28;20050;-30
2021/12/20 12:52:15;;;;;;;25.37;6.00;;;6.60;99.90;;;;;;5003253;28;20058;-29
2021/12/20 12:54:54;;;;;;;26.10;5.77;;;6.50;99.90;;;;;;5002847;28;20152;-30
2021/12/20 12:57:19;;;;;;;25.30;5.93;;;6.50;99.90;;;;;;4966088;28;20073;-30
2021/12/20 12:59:49;;;;;;;23.50;5.10;;;6.40;99.90;;;;;;5002868;28;20073;-29
2021/12/20 13:02:35;;;;;;;21.87;5.90;;;6.40;99.90;;;;;;5001934;28;20225;-29
2021/12/20 13:05:16;;;;;;;25.97;5.73;;;6.40;99.90;;;;;;5001289;28;20041;-29
2021/12/20 13:07:53;;;;;;;22.08;4.78;;;6.30;99.90;;;;;;4985526;28;20050;-30
2021/12/20 13:10:29;;;;;;;19.77;5.97;;;6.30;99.90;;;;;;5002299;28;20117;-29
2021/12/20 13:13:05;;;;;;;27.07;6.37;;;6.30;99.90;;;;;;4973374;28;20037;-29
2021/12/20 13:15:44;;;;;;;26.83;6.13;;;6.30;99.90;;;;;;4998601;28;20069;-29
2021/12/20 13:18:18;;;;;;;21.50;5.93;;;6.20;99.90;;;;;;4984383;28;20057;-30